createdAt,value
2023-03-07T00:02:18.490Z,7.07
2023-03-07T00:04:46.740Z,7.63
2023-03-07T00:07:14.546Z,8.70
2023-03-07T00:09:42.213Z,7.45
2023-03-07T00:12:09.890Z,8.73
2023-03-07T00:14:37.338Z,8.23
2023-03-07T00:17:04.598Z,8.60
2023-03-07T00:19:31.919Z,8.57
2023-03-07T00:21:59.178Z,8.65
2023-03-07T00:24:26.472Z,8.30
2023-03-07T00:26:53.705Z,7.07
2023-03-07T00:29:20.984Z,4.55
2023-03-07T00:31:49.522Z,3.97
2023-03-07T00:34:16.778Z,3.57
2023-03-07T00:36:44.072Z,3.47
2023-03-07T00:39:11.388Z,2.90
2023-03-07T00:41:38.757Z,2.70
2023-03-07T00:44:06.049Z,2.60
2023-03-07T00:46:33.500Z,2.83
2023-03-07T00:49:00.798Z,2.75
2023-03-07T00:51:28.055Z,3.75
2023-03-07T00:53:55.441Z,4.75
2023-03-07T00:56:24.099Z,2.80
2023-03-07T00:58:51.973Z,3.60
2023-03-07T01:01:23.645Z,2.78
2023-03-07T01:03:53.649Z,2.80
2023-03-07T01:06:23.203Z,3.70
2023-03-07T01:11:18.470Z,2.97
2023-03-07T01:13:46.264Z,2.40
2023-03-07T01:16:24.674Z,2.55
2023-03-07T01:18:53.029Z,2.78
2023-03-07T01:21:20.891Z,2.45
2023-03-07T01:23:48.989Z,3.25
2023-03-07T01:26:17.566Z,2.58
2023-03-07T01:28:44.877Z,2.60
2023-03-07T01:31:12.354Z,2.55
2023-03-07T01:33:41.157Z,2.42
2023-03-07T01:36:19.435Z,2.80
2023-03-07T01:38:48.546Z,2.97
2023-03-07T01:41:16.486Z,2.47
2023-03-07T01:43:44.963Z,2.90
2023-03-07T01:46:18.986Z,2.60
2023-03-07T01:48:54.783Z,3.47
2023-03-07T01:51:22.819Z,2.05
2023-03-07T01:56:18.764Z,2.97
2023-03-07T01:58:46.663Z,2.70
2023-03-07T02:01:15.215Z,3.00
2023-03-07T02:03:48.079Z,2.85
2023-03-07T02:06:16.398Z,2.88
2023-03-07T02:08:44.286Z,3.50
2023-03-07T02:11:11.915Z,3.30
2023-03-07T02:13:39.692Z,2.90
2023-03-07T02:16:07.731Z,3.85
2023-03-07T02:18:36.900Z,3.63
2023-03-07T02:21:19.538Z,4.28
2023-03-07T02:24:05.652Z,3.75
2023-03-07T02:26:32.961Z,3.67
2023-03-07T02:29:00.694Z,4.07
2023-03-07T02:31:29.060Z,2.80
2023-03-07T02:33:56.374Z,3.25
2023-03-07T02:36:26.766Z,3.10
2023-03-07T02:39:15.061Z,2.63
2023-03-07T02:41:43.475Z,4.00
2023-03-07T02:44:19.553Z,2.67
2023-03-07T02:46:46.877Z,3.05
2023-03-07T02:49:14.405Z,2.72
2023-03-07T02:51:41.650Z,2.70
2023-03-07T02:54:09.133Z,2.45
2023-03-07T02:56:36.671Z,4.25
2023-03-07T02:59:04.004Z,2.20
2023-03-07T03:01:31.402Z,3.20
2023-03-07T03:03:58.746Z,1.70
2023-03-07T03:06:26.013Z,1.80
2023-03-07T03:08:53.308Z,2.00
2023-03-07T03:11:20.700Z,1.63
2023-03-07T03:13:48.137Z,2.25
2023-03-07T03:16:15.694Z,1.45
2023-03-07T03:18:43.570Z,1.75
2023-03-07T03:21:11.379Z,2.25
2023-03-07T03:23:39.198Z,1.65
2023-03-07T03:26:07.869Z,2.25
2023-03-07T03:28:36.014Z,2.00
2023-03-07T03:31:05.655Z,1.42
2023-03-07T03:33:33.413Z,1.30
2023-03-07T03:36:01.974Z,1.23
2023-03-07T03:38:29.306Z,2.60
2023-03-07T03:40:57.473Z,1.88
2023-03-07T03:43:24.768Z,1.55
2023-03-07T03:45:56.309Z,1.67
2023-03-07T03:48:25.118Z,1.55
2023-03-07T03:51:00.461Z,1.60
2023-03-07T03:53:27.759Z,1.58
2023-03-07T03:56:01.330Z,1.25
2023-03-07T03:58:28.578Z,1.73
2023-03-07T04:00:56.373Z,1.67
2023-03-07T04:03:23.735Z,1.33
2023-03-07T04:05:50.986Z,1.52
2023-03-07T04:08:18.278Z,0.80
2023-03-07T04:10:45.652Z,1.27
2023-03-07T04:13:13.040Z,1.60
2023-03-07T04:15:40.310Z,0.90
2023-03-07T04:18:07.592Z,2.08
2023-03-07T04:20:34.886Z,0.75
2023-03-07T04:23:02.511Z,0.80
2023-03-07T04:25:29.884Z,1.05
2023-03-07T04:27:57.338Z,1.00
2023-03-07T04:30:26.407Z,1.48
2023-03-07T04:32:53.729Z,1.30
2023-03-07T04:35:20.923Z,2.88
2023-03-07T04:37:48.133Z,0.77
2023-03-07T04:40:15.408Z,1.08
2023-03-07T04:42:42.628Z,1.08
2023-03-07T04:45:11.601Z,1.00
2023-03-07T04:47:38.854Z,1.00
2023-03-07T04:50:06.669Z,1.00
2023-03-07T04:52:35.943Z,1.17
2023-03-07T04:55:03.424Z,1.00
2023-03-07T04:57:30.779Z,1.35
2023-03-07T04:59:58.258Z,1.00
2023-03-07T05:02:25.838Z,0.98
2023-03-07T05:04:53.504Z,1.02
2023-03-07T05:07:21.463Z,0.50
2023-03-07T05:09:50.378Z,1.13
2023-03-07T05:12:17.771Z,0.57
2023-03-07T05:14:45.135Z,3.33
2023-03-07T05:17:12.423Z,1.27
2023-03-07T05:19:39.689Z,0.68
2023-03-07T05:22:07.540Z,1.60
2023-03-07T05:24:35.107Z,0.88
2023-03-07T05:27:03.432Z,0.85
2023-03-07T05:29:30.741Z,0.57
2023-03-07T05:31:58.919Z,0.82
2023-03-07T05:34:26.560Z,1.08
2023-03-07T05:36:54.147Z,0.93
2023-03-07T05:39:21.628Z,0.80
2023-03-07T05:41:49.344Z,1.70
2023-03-07T05:44:16.667Z,0.65
2023-03-07T05:46:44.133Z,1.42
2023-03-07T05:49:11.545Z,0.70
2023-03-07T05:51:38.802Z,0.63
2023-03-07T05:54:06.214Z,0.90
2023-03-07T05:56:34.918Z,0.32
2023-03-07T05:59:02.237Z,1.83
2023-03-07T06:01:29.838Z,0.77
2023-03-07T06:03:58.049Z,0.95
2023-03-07T06:06:25.337Z,0.50
2023-03-07T06:08:52.551Z,1.23
2023-03-07T06:11:19.806Z,1.00
2023-03-07T06:13:47.093Z,0.80
2023-03-07T06:16:14.443Z,0.70
2023-03-07T06:18:42.870Z,0.93
2023-03-07T06:21:11.366Z,0.70
2023-03-07T06:23:43.224Z,1.20
2023-03-07T06:26:13.617Z,0.98
2023-03-07T06:28:42.887Z,1.20
2023-03-07T06:31:12.556Z,0.85
2023-03-07T06:33:40.025Z,1.08
2023-03-07T06:36:11.531Z,0.70
2023-03-07T06:38:41.196Z,0.70
2023-03-07T06:41:08.911Z,0.65
2023-03-07T06:43:36.852Z,1.92
2023-03-07T06:46:05.010Z,0.73
2023-03-07T06:48:36.123Z,0.95
2023-03-07T06:51:10.160Z,0.60
2023-03-07T06:53:41.137Z,0.68
2023-03-07T06:56:09.004Z,0.75
2023-03-07T06:58:37.187Z,1.88
2023-03-07T07:01:04.782Z,0.95
2023-03-07T07:03:34.946Z,1.05
2023-03-07T07:06:03.618Z,0.82
2023-03-07T07:10:59.708Z,1.55
2023-03-07T07:13:27.993Z,1.10
2023-03-07T07:15:55.405Z,2.80
2023-03-07T07:18:24.657Z,1.00
2023-03-07T07:20:56.260Z,1.15
2023-03-07T07:23:26.414Z,1.20
2023-03-07T07:25:54.334Z,1.27
2023-03-07T07:28:21.709Z,1.10
2023-03-07T07:30:49.071Z,0.88
2023-03-07T07:33:17.047Z,1.00
2023-03-07T07:35:47.743Z,1.75
2023-03-07T07:38:15.776Z,1.27
2023-03-07T07:40:43.550Z,0.95
2023-03-07T07:43:15.065Z,2.10
2023-03-07T07:46:08.490Z,1.05
2023-03-07T07:48:35.823Z,0.90
2023-03-07T07:51:03.648Z,1.00
2023-03-07T07:53:31.798Z,2.13
2023-03-07T07:55:59.234Z,1.02
2023-03-07T07:58:26.772Z,1.15
2023-03-07T08:00:54.188Z,1.08
2023-03-07T08:03:21.793Z,1.10
2023-03-07T08:05:49.877Z,1.25
2023-03-07T08:08:17.746Z,1.20
2023-03-07T08:10:46.834Z,1.35
2023-03-07T08:13:14.797Z,0.98
2023-03-07T08:15:42.390Z,1.17
2023-03-07T08:18:13.523Z,1.50
2023-03-07T08:20:41.361Z,2.35
2023-03-07T08:23:08.664Z,1.73
2023-03-07T08:25:35.968Z,1.40
2023-03-07T08:28:05.308Z,1.70
2023-03-07T08:33:00.379Z,1.08
2023-03-07T08:35:28.323Z,1.27
2023-03-07T08:37:59.796Z,1.10
2023-03-07T08:40:27.877Z,1.23
2023-03-07T08:42:55.296Z,2.85
2023-03-07T08:45:25.702Z,3.47
2023-03-07T08:47:53.909Z,1.75
2023-03-07T08:50:25.955Z,1.25
2023-03-07T08:52:53.461Z,1.10
2023-03-07T08:55:20.907Z,2.25
2023-03-07T08:57:48.287Z,1.20
2023-03-07T09:00:15.876Z,2.03
2023-03-07T09:02:43.235Z,1.17
2023-03-07T09:05:10.517Z,1.00
2023-03-07T09:07:37.756Z,1.23
2023-03-07T09:10:05.946Z,1.63
2023-03-07T09:12:34.063Z,2.15
2023-03-07T09:15:01.272Z,1.25
2023-03-07T09:17:28.786Z,1.20
2023-03-07T09:19:56.638Z,1.13
2023-03-07T09:22:23.922Z,1.08
2023-03-07T09:24:51.193Z,0.98
2023-03-07T09:27:18.881Z,0.93
2023-03-07T09:29:47.551Z,0.90
2023-03-07T09:32:15.133Z,0.60
2023-03-07T09:34:42.445Z,1.23
2023-03-07T09:37:09.682Z,1.15
2023-03-07T09:39:36.901Z,2.03
2023-03-07T09:42:07.259Z,0.98
2023-03-07T09:44:43.100Z,1.17
2023-03-07T09:47:36.056Z,1.17
2023-03-07T09:50:04.028Z,1.42
2023-03-07T09:52:34.143Z,1.10
2023-03-07T09:55:02.481Z,0.82
2023-03-07T09:57:33.924Z,1.93
2023-03-07T10:00:04.036Z,1.02
2023-03-07T10:02:48.931Z,0.80
2023-03-07T10:05:19.711Z,1.70
2023-03-07T10:07:46.969Z,2.08
2023-03-07T10:10:23.165Z,0.75
2023-03-07T10:12:56.306Z,1.48
2023-03-07T10:15:23.602Z,1.00
2023-03-07T10:17:50.856Z,0.98
2023-03-07T10:20:18.189Z,1.23
2023-03-07T10:22:48.504Z,1.23
2023-03-07T10:25:30.557Z,1.42
2023-03-07T10:28:02.477Z,1.85
2023-03-07T10:30:32.433Z,0.80
2023-03-07T10:33:01.344Z,1.30
2023-03-07T10:35:41.324Z,0.88
2023-03-07T10:38:11.654Z,0.95
2023-03-07T10:40:49.777Z,0.98
2023-03-07T10:43:24.288Z,1.00
2023-03-07T10:45:54.593Z,1.10
2023-03-07T10:48:22.042Z,1.40
2023-03-07T10:50:56.100Z,1.00
2023-03-07T10:53:25.730Z,1.20
2023-03-07T10:55:53.125Z,0.68
2023-03-07T10:58:27.382Z,0.90
2023-03-07T11:01:02.251Z,1.10
2023-03-07T11:03:46.042Z,1.35
2023-03-07T11:06:36.171Z,1.73
2023-03-07T11:09:18.830Z,0.80
2023-03-07T11:12:08.854Z,1.60
2023-03-07T11:14:52.778Z,2.45
2023-03-07T11:17:24.292Z,0.95
2023-03-07T11:19:55.131Z,0.80
2023-03-07T11:22:24.818Z,1.10
2023-03-07T11:24:55.180Z,0.47
2023-03-07T11:27:23.620Z,0.60
2023-03-07T11:30:07.017Z,0.70
2023-03-07T11:32:36.840Z,0.60
2023-03-07T11:35:07.664Z,0.95
2023-03-07T11:37:49.885Z,0.70
2023-03-07T11:40:17.096Z,0.70
2023-03-07T11:42:52.920Z,0.50
2023-03-07T11:45:23.053Z,1.08
2023-03-07T11:48:00.964Z,1.45
2023-03-07T11:50:30.804Z,0.95
2023-03-07T11:53:00.792Z,0.77
2023-03-07T11:55:35.953Z,0.90
2023-03-07T11:58:22.371Z,0.90
2023-03-07T12:01:04.908Z,2.30
2023-03-07T12:03:45.697Z,0.80
2023-03-07T12:06:23.529Z,0.93
2023-03-07T12:09:06.165Z,1.65
2023-03-07T12:11:42.374Z,0.90
2023-03-07T12:14:24.834Z,1.00
2023-03-07T12:17:04.065Z,1.30
2023-03-07T12:22:18.432Z,1.10
2023-03-07T12:25:06.018Z,1.80
2023-03-07T12:27:39.263Z,1.00
2023-03-07T12:30:25.007Z,1.27
2023-03-07T12:32:53.266Z,1.10
2023-03-07T12:35:23.789Z,0.88
2023-03-07T12:37:51.006Z,0.63
2023-03-07T12:40:22.585Z,0.80
2023-03-07T12:42:54.310Z,1.00
2023-03-07T12:45:22.816Z,1.20
2023-03-07T12:48:09.620Z,1.00
2023-03-07T12:50:55.645Z,0.80
2023-03-07T12:53:25.730Z,0.95
2023-03-07T12:55:57.839Z,2.47
2023-03-07T12:58:25.080Z,1.50
2023-03-07T13:00:58.824Z,1.50
2023-03-07T13:03:45.533Z,2.10
2023-03-07T13:06:23.373Z,1.30
2023-03-07T13:08:52.257Z,1.17
2023-03-07T13:11:24.052Z,0.82
2023-03-07T13:13:53.064Z,0.65
2023-03-07T13:16:34.320Z,0.98
2023-03-07T13:19:20.267Z,0.70
2023-03-07T13:21:47.523Z,1.00
2023-03-07T13:24:34.646Z,0.80
2023-03-07T13:27:02.745Z,0.80
2023-03-07T13:29:48.944Z,0.60
2023-03-07T13:32:35.233Z,0.70
2023-03-07T13:35:03.674Z,0.80
2023-03-07T13:37:49.412Z,1.00
2023-03-07T13:40:28.822Z,0.80
2023-03-07T13:45:38.580Z,0.80
2023-03-07T13:48:09.475Z,1.83
2023-03-07T13:50:36.719Z,1.55
2023-03-07T13:53:08.829Z,1.67
2023-03-07T13:55:41.173Z,0.90
2023-03-07T13:58:21.062Z,0.85
2023-03-07T14:01:08.587Z,0.60
2023-03-07T14:03:37.988Z,0.88
2023-03-07T14:06:17.322Z,1.00
2023-03-07T14:11:21.271Z,1.00
2023-03-07T14:14:11.824Z,1.33
2023-03-07T14:16:55.445Z,1.17
2023-03-07T14:19:41.583Z,0.93
2023-03-07T14:22:18.601Z,0.73
2023-03-07T14:24:46.345Z,2.75
2023-03-07T14:27:15.299Z,0.85
2023-03-07T14:29:53.055Z,0.88
2023-03-07T14:32:28.452Z,1.08
2023-03-07T14:34:56.172Z,0.90
2023-03-07T14:37:27.445Z,1.17
2023-03-07T14:39:57.897Z,1.00
2023-03-07T14:42:25.092Z,1.20
2023-03-07T14:45:15.516Z,1.38
2023-03-07T14:47:58.049Z,1.73
2023-03-07T14:50:29.268Z,1.00
2023-03-07T14:53:15.454Z,1.30
2023-03-07T14:55:44.067Z,2.67
2023-03-07T14:58:19.268Z,1.10
2023-03-07T15:00:46.643Z,1.38
2023-03-07T15:03:14.950Z,1.63
2023-03-07T15:05:50.305Z,1.40
2023-03-07T15:08:22.990Z,1.13
2023-03-07T15:10:53.056Z,2.90
2023-03-07T15:13:36.842Z,1.42
2023-03-07T15:16:11.530Z,1.60
2023-03-07T15:18:38.802Z,1.67
2023-03-07T15:21:06.966Z,1.55
2023-03-07T15:23:34.467Z,1.42
2023-03-07T15:26:05.027Z,1.70
2023-03-07T15:28:34.682Z,1.48
2023-03-07T15:31:02.449Z,1.60
2023-03-07T15:33:31.333Z,1.73
2023-03-07T15:36:13.779Z,1.35
2023-03-07T15:38:42.524Z,1.10
2023-03-07T15:41:29.661Z,1.20
2023-03-07T15:44:12.180Z,0.93
2023-03-07T15:46:40.841Z,1.15
2023-03-07T15:49:17.973Z,1.10
2023-03-07T15:51:45.515Z,0.80
2023-03-07T15:54:33.437Z,0.70
2023-03-07T15:57:02.373Z,1.00
2023-03-07T15:59:31.611Z,0.60
2023-03-07T16:02:18.788Z,0.80
2023-03-07T16:04:46.130Z,0.60
2023-03-07T16:07:19.550Z,0.80
2023-03-07T16:09:46.777Z,0.70
2023-03-07T16:12:19.338Z,0.50
2023-03-07T16:14:48.288Z,0.57
2023-03-07T16:17:20.622Z,0.82
2023-03-07T16:19:47.978Z,0.93
2023-03-07T16:22:16.478Z,0.90
2023-03-07T16:24:43.780Z,0.73
2023-03-07T16:27:18.668Z,0.80
2023-03-07T16:29:46.006Z,1.25
2023-03-07T16:32:14.608Z,1.42
2023-03-07T16:34:44.273Z,1.10
2023-03-07T16:37:11.741Z,0.80
2023-03-07T16:39:38.993Z,1.10
2023-03-07T16:42:07.502Z,0.88
2023-03-07T16:44:39.247Z,1.05
2023-03-07T16:47:13.298Z,1.00
2023-03-07T16:49:40.673Z,1.88
2023-03-07T16:52:08.409Z,1.15
2023-03-07T16:54:35.602Z,1.40
2023-03-07T16:57:03.207Z,1.33
2023-03-07T16:59:37.410Z,1.30
2023-03-07T17:02:12.446Z,1.90
2023-03-07T17:04:39.761Z,0.70
2023-03-07T17:07:14.340Z,1.00
2023-03-07T17:09:41.661Z,1.27
2023-03-07T17:12:09.175Z,1.00
2023-03-07T17:14:36.593Z,1.08
2023-03-07T17:17:04.913Z,0.93
2023-03-07T17:19:33.042Z,0.80
2023-03-07T17:22:01.409Z,1.15
2023-03-07T17:24:29.234Z,1.13
2023-03-07T17:26:57.317Z,0.90
2023-03-07T17:29:29.200Z,1.23
2023-03-07T17:31:56.544Z,1.40
2023-03-07T17:34:31.115Z,0.95
2023-03-07T17:36:59.049Z,0.70
2023-03-07T17:39:27.701Z,0.55
2023-03-07T17:41:55.043Z,0.45
2023-03-07T17:44:22.352Z,0.68
2023-03-07T17:46:49.666Z,0.73
2023-03-07T17:49:16.922Z,1.00
2023-03-07T17:51:44.329Z,1.52
2023-03-07T17:54:11.677Z,1.95
2023-03-07T17:56:39.016Z,1.45
2023-03-07T17:59:06.348Z,1.45
2023-03-07T18:01:34.810Z,1.50
2023-03-07T18:04:03.948Z,1.30
2023-03-07T18:06:33.984Z,1.52
2023-03-07T18:09:01.850Z,2.25
2023-03-07T18:11:29.513Z,5.40
2023-03-07T18:13:56.865Z,4.45
2023-03-07T18:16:24.460Z,2.60
2023-03-07T18:18:59.379Z,1.50
2023-03-07T18:21:29.625Z,2.20
2023-03-07T18:23:57.464Z,1.60
2023-03-07T18:26:24.809Z,2.22
2023-03-07T18:28:56.459Z,2.60
2023-03-07T18:31:25.231Z,1.48
2023-03-07T18:33:53.447Z,1.70
2023-03-07T18:36:21.492Z,1.70
2023-03-07T18:38:49.002Z,1.42
2023-03-07T18:41:18.376Z,1.25
2023-03-07T18:46:14.451Z,1.58
2023-03-07T18:48:41.885Z,3.58
2023-03-07T18:51:10.681Z,1.88
2023-03-07T18:53:38.408Z,1.33
2023-03-07T18:56:07.092Z,0.95
2023-03-07T18:58:34.758Z,1.25
2023-03-07T19:01:14.646Z,1.67
2023-03-07T19:03:41.930Z,1.20
2023-03-07T19:06:09.733Z,2.13
2023-03-07T19:08:37.249Z,1.60
2023-03-07T19:11:08.904Z,1.90
2023-03-07T19:13:36.658Z,2.08
2023-03-07T19:16:05.414Z,1.67
2023-03-07T19:18:33.097Z,1.45
2023-03-07T19:21:00.426Z,1.40
2023-03-07T19:23:27.642Z,1.55
2023-03-07T19:25:55.133Z,1.52
2023-03-07T19:28:22.413Z,2.10
2023-03-07T19:30:49.693Z,2.17
2023-03-07T19:33:16.940Z,2.00
2023-03-07T19:35:44.284Z,1.80
2023-03-07T19:38:11.534Z,1.90
2023-03-07T19:40:38.795Z,1.83
2023-03-07T19:43:06.017Z,2.10
2023-03-07T19:45:33.402Z,2.55
2023-03-07T19:48:00.859Z,3.30
2023-03-07T19:50:28.123Z,3.17
2023-03-07T19:52:57.400Z,2.30
2023-03-07T19:57:51.868Z,2.65
2023-03-07T20:00:20.339Z,3.05
2023-03-07T20:02:47.778Z,3.30
2023-03-07T20:05:15.299Z,2.47
2023-03-07T20:07:42.692Z,2.65
2023-03-07T20:10:10.537Z,1.90
2023-03-07T20:12:38.034Z,2.10
2023-03-07T20:15:06.877Z,2.28
2023-03-07T20:17:34.284Z,2.28
2023-03-07T20:20:04.521Z,2.83
2023-03-07T20:22:32.033Z,4.93
2023-03-07T20:24:59.341Z,4.82
2023-03-07T20:27:27.052Z,4.30
2023-03-07T20:29:54.382Z,4.60
2023-03-07T20:32:21.950Z,3.83
2023-03-07T20:34:52.549Z,3.92
2023-03-07T20:37:20.102Z,3.63
2023-03-07T20:39:47.516Z,3.70
2023-03-07T20:42:15.000Z,3.30
2023-03-07T20:44:42.371Z,3.17
2023-03-07T20:47:09.862Z,2.90
2023-03-07T20:49:37.369Z,2.80
2023-03-07T20:52:04.869Z,2.50
2023-03-07T20:54:32.603Z,2.97
2023-03-07T20:57:00.080Z,2.40
2023-03-07T20:59:27.587Z,2.55
2023-03-07T21:01:55.597Z,2.70
2023-03-07T21:04:23.009Z,2.35
2023-03-07T21:06:50.480Z,2.40
2023-03-07T21:09:18.844Z,3.40
2023-03-07T21:11:47.567Z,3.30
2023-03-07T21:14:15.324Z,4.15
2023-03-07T21:16:43.893Z,2.63
2023-03-07T21:19:11.624Z,2.70
2023-03-07T21:21:39.451Z,2.45
2023-03-07T21:24:07.310Z,2.90
2023-03-07T21:26:38.402Z,3.00
2023-03-07T21:29:08.915Z,3.20
2023-03-07T21:31:36.747Z,3.58
2023-03-07T21:34:06.230Z,3.42
2023-03-07T21:36:34.148Z,2.67
2023-03-07T21:39:02.730Z,3.05
2023-03-07T21:41:30.126Z,2.78
2023-03-07T21:43:58.070Z,5.07
2023-03-07T21:46:25.963Z,3.00
2023-03-07T21:48:53.623Z,4.45
2023-03-07T21:51:21.215Z,2.45
2023-03-07T21:53:48.613Z,2.80
2023-03-07T21:56:17.278Z,2.92
2023-03-07T21:58:47.562Z,2.08
2023-03-07T22:01:19.914Z,2.25
2023-03-07T22:03:47.622Z,2.35
2023-03-07T22:06:16.797Z,2.42
2023-03-07T22:08:44.261Z,2.53
2023-03-07T22:11:12.531Z,2.28
2023-03-07T22:13:40.678Z,1.43
2023-03-07T22:16:13.287Z,2.10
2023-03-07T22:18:40.638Z,2.10
2023-03-07T22:21:13.619Z,2.45
2023-03-07T22:23:41.178Z,2.47
2023-03-07T22:26:09.368Z,1.95
2023-03-07T22:28:36.788Z,1.70
2023-03-07T22:31:08.889Z,2.85
2023-03-07T22:33:36.701Z,1.70
2023-03-07T22:36:05.937Z,2.28
2023-03-07T22:38:33.803Z,1.85
2023-03-07T22:41:08.873Z,2.60
2023-03-07T22:43:36.612Z,2.03
2023-03-07T22:46:04.124Z,1.60
2023-03-07T22:48:31.657Z,1.73
2023-03-07T22:50:59.149Z,1.85
2023-03-07T22:53:31.074Z,2.42
2023-03-07T22:56:02.291Z,1.80
2023-03-07T22:58:30.543Z,1.98
2023-03-07T23:01:06.953Z,1.67
2023-03-07T23:03:34.893Z,1.85
2023-03-07T23:06:02.347Z,1.98
2023-03-07T23:08:29.897Z,2.85
2023-03-07T23:11:01.291Z,1.30
2023-03-07T23:13:28.616Z,1.55
2023-03-07T23:15:56.086Z,1.70
2023-03-07T23:18:23.667Z,1.55
2023-03-07T23:20:51.021Z,1.75
2023-03-07T23:23:18.315Z,2.13
2023-03-07T23:25:45.699Z,2.20
2023-03-07T23:28:13.020Z,1.88
2023-03-07T23:30:40.840Z,2.25
2023-03-07T23:33:08.242Z,1.92
2023-03-07T23:35:36.143Z,2.17
2023-03-07T23:38:03.843Z,1.50
2023-03-07T23:40:31.231Z,1.85
2023-03-07T23:42:59.077Z,1.65
2023-03-07T23:45:26.557Z,1.85
2023-03-07T23:47:54.006Z,1.63
2023-03-07T23:50:21.556Z,1.80
2023-03-07T23:52:48.911Z,1.20
2023-03-07T23:55:16.623Z,2.08
2023-03-07T23:57:44.053Z,2.00
